Youngstown, NY

11:15 PM EDT on August 27, 2015 (GMT -0400)
the original Riverbend Farm | | Change Station
CLOSE
Current Station
Personal Weather Station
Location: Niagara On The Lake, Ontario
Elevation: 315 ft
Nearby Weather Stations

Elev 315 ft 43.21 °N, 79.06 °W | Updated 14 minutes ago

Mostly Cloudy
Mostly Cloudy
61.9 °F
Feels Like 61.9 °F
N
0.0
Wind Variable Wind from West
Gusts 0.0 mph

Today
High -- | Low -- °F
--% Chance of Precip.
Yesterday
High -- | Low -- °F
Precip. -- in
6:34 AM 8:00 PM
Waxing Gibbous, 96% visible
Pressure 30.17 in
Visibility 10.0 miles
Clouds Mostly Cloudy 4800 ft
Dew Point 57 °F
Humidity 83%
Rainfall 0.00 in
Snow Depth Not available.
UV 0 out of 12
Pollen 9.80 out of 12
Air Quality Not available.
Flu Activity Not available.
METAR KIAG 280253Z COR 00000KT 10SM BKN048 16/12 A3016 RMK AO2 SLP214 T01610117 51005 LAST COR 0254
Pressure 30.17 in
Visibility 10.0 miles
Clouds Mostly Cloudy 4800 ft
Dew Point 57 °F
Humidity 83%
Rainfall 0.00 in
Snow Depth Not available.
UV 0 out of 12
Pollen 9.80 out of 12
Air Quality Not available.
Flu Activity Not available.
METAR KIAG 280253Z COR 00000KT 10SM BKN048 16/12 A3016 RMK AO2 SLP214 T01610117 51005 LAST COR 0254

10-Day Weather Forecast

×

Almanac

Astronomy

Aug. 27, 2015 Rise Set
Actual Time
Civil Twilight
Nautical Twilight
Astronomical Twilight
Moon
Length of Visible Light
Length of Day
Tomorrow will be .
, % of the Moon is Illuminated

Today's Extremes

State Highs State Lows

Community

WunderPhotos

Upload Photos

1,850,312 photos uploaded!

WunderBlogs® & News

Nearby

Air Quality

  Air Quality AQ Index Pollutant
Not available.

Snow Depth

Station Depth Elevation

Earthquake Activity

City Distance Mag. Time & Date
Minimum magnitude displayed is 2.5.

Coastal Water Temperatures

Place Temperature

Stations

Nearby Weather Stations

Station Location Temp. Windchill Dew Point Humidity Wind Precip. Elev Updated Type